Nordic Philip — 5BZH2 — position and weather

sailwx.info

Track history (hours):
 
Tides and Currents Weather Stations Pressure Air Temp Water Temp Dewpoint Dewpoint Depression Visibility Wind Speed Wind Dir Waves Ship Positions

Nordic Philip

Last reported at 2017-Mar-26 19:19 UTC. Time now 2017-Mar-29 16:57 UTC.
Position N 55°35' E 019°50'.

Length 151 m; draft 6.8 m.

Type: Ship (hazmat cat A). MMSI: 212018000.

Date/timePositionNaut miles runAvg speedWind from/ knotsBaromVisibWave heightAir tempDewpointWater temp
2017-Mar-26 19:19N 55°35' E 019°50'1416.7
2017-Mar-26 18:30N 55°22' E 019°46'1718.1
2017-Mar-26 17:33N 55°05' E 019°38'1818.2
2017-Mar-26 16:33N 54°47' E 019°36'1414.2
2017-Mar-26 15:33N 54°38' E 019°55'9 7.3
2017-Mar-26 14:15N 54°41' E 020°10'5 0.2
2017-Mar-25 15:10N 54°39' E 020°03'5 8.1
2017-Mar-25 14:29N 54°38' E 019°53'6 6.3
2017-Mar-25 13:33N 54°41' E 019°45'1211.6
2017-Mar-25 12:34N 54°46' E 019°27'1616.4
2017-Mar-25 11:33N 54°52' E 019°00'1716.7
2017-Mar-25 10:34N 54°55' E 018°32'1717.2
2017-Mar-25 09:34N 54°54' E 018°02'11718.4
2017-Mar-25 03:13N 54°37' E 014°42'1418.0
2017-Mar-25 02:26N 54°37' E 014°17'1718.5
2017-Mar-25 01:31N 54°41' E 013°49'1718.1
2017-Mar-25 00:33N 54°45' E 013°20'1818.2
2017-Mar-24 23:34N 54°44' E 012°48'1817.9
2017-Mar-24 22:32N 54°35' E 012°21'1616.5
2017-Mar-24 21:33N 54°24' E 012°01'1817.5
2017-Mar-24 20:33N 54°29' E 011°31'1817.8
2017-Mar-24 19:34N 54°35' E 011°03'1716.7
2017-Mar-24 18:33N 54°33' E 010°34'49 7.5
2017-Mar-24 12:03N 54°09' E 009°21'4 7.4
2017-Mar-24 11:32N 54°05' E 009°19'8 8.0
2017-Mar-24 10:33N 53°58' E 009°15'5 5.4
2017-Mar-24 09:33N 53°54' E 009°09'2 2.3
2017-Mar-24 08:33N 53°52' E 009°05'1414.2
2017-Mar-24 07:33N 53°54' E 008°41'1615.9
2017-Mar-24 06:33N 53°60' E 008°16'1312.7
2017-Mar-24 05:33N 53°54' E 007°56'9 9.2
2017-Mar-24 04:33N 53°48' E 008°08'1413.8
2017-Mar-24 03:33N 53°39' E 008°25'6 5.2
2017-Mar-24 02:28N 53°35' E 008°32'0 0.0
2017-Mar-24 01:28N 53°35' E 008°32'0 0.0
2017-Mar-24 00:28N 53°35' E 008°32'0 0.0
2017-Mar-23 23:28N 53°35' E 008°32'0 0.0
2017-Mar-23 22:28N 53°35' E 008°32'0 0.0
2017-Mar-23 21:28N 53°35' E 008°32'0 0.0
2017-Mar-23 20:33N 53°35' E 008°32'0 0.0
2017-Mar-23 19:33N 53°35' E 008°32'0 0.0
2017-Mar-23 18:33N 53°35' E 008°32'0 0.0
2017-Mar-23 17:33N 53°35' E 008°32'0 0.0
2017-Mar-23 16:33N 53°35' E 008°32'0 0.0
2017-Mar-23 15:33N 53°35' E 008°32'0 0.1
2017-Mar-23 14:33N 53°35' E 008°32'1111.0
2017-Mar-23 13:33N 53°43' E 008°18'1414.2
2017-Mar-23 12:33N 53°51' E 007°59'5 4.6
2017-Mar-23 11:33N 53°54' E 007°54'2 1.9
2017-Mar-23 10:31N 53°55' E 007°57'10 7.9
2017-Mar-23 09:18N 54°00' E 008°10'1115.2
2017-Mar-23 08:34N 53°59' E 008°29'1212.5
2017-Mar-23 07:34N 53°51' E 008°46'1212.4
2017-Mar-23 06:34N 53°53' E 009°07'1010.1
2017-Mar-23 05:33N 53°49' E 009°22'1212.4
2017-Mar-23 04:34N 53°38' E 009°32'1313.0
2017-Mar-23 03:33N 53°33' E 009°52'3 3.0
2017-Mar-23 02:29N 53°31' E 009°56'0 0.0
2017-Mar-23 01:32N 53°31' E 009°56'0 0.0
2017-Mar-23 00:32N 53°31' E 009°56'0 0.0
2017-Mar-22 23:32N 53°31' E 009°56'0 0.0
2017-Mar-22 22:32N 53°31' E 009°56'0 0.0
2017-Mar-22 21:32N 53°31' E 009°56'2 1.9
2017-Mar-22 20:33N 53°32' E 009°56'1 0.7
2017-Mar-22 19:31N 53°32' E 009°56'0 0.0
2017-Mar-22 18:31N 53°32' E 009°56'0 0.0
2017-Mar-22 17:31N 53°32' E 009°56'0 0.0
2017-Mar-22 16:31N 53°32' E 009°56'0 0.0
2017-Mar-22 15:31N 53°32' E 009°56'0 0.0
2017-Mar-22 14:31N 53°32' E 009°56'0 0.0
2017-Mar-22 13:31N 53°32' E 009°56'0 0.0
2017-Mar-22 12:31N 53°32' E 009°56'1 0.6
2017-Mar-22 11:33N 53°32' E 009°55'0 0.0
2017-Mar-22 10:33N 53°32' E 009°55'0 0.0
2017-Mar-22 09:33N 53°32' E 009°55'0 0.0
2017-Mar-22 08:30N 53°32' E 009°55'0 0.0
2017-Mar-22 07:33N 53°32' E 009°55'0 0.0
2017-Mar-22 06:33N 53°32' E 009°55'1 1.3
2017-Mar-22 05:34N 53°33' E 009°53'9 9.2
2017-Mar-22 04:33N 53°35' E 009°38'1212.0
2017-Mar-22 03:34N 53°44' E 009°26'1313.5
2017-Mar-22 02:34N 53°53' E 009°08'1 1.2
2017-Mar-22 01:33N 53°54' E 009°09'7 7.4
2017-Mar-22 00:33N 53°60' E 009°17'8 7.2
2017-Mar-21 23:29N 54°07' E 009°20'41 5.1
2017-Mar-21 15:33N 54°30' E 010°18'1111.3
2017-Mar-21 14:34N 54°34' E 010°36'1212.4
2017-Mar-21 13:33N 54°36' E 010°57'1413.8
2017-Mar-21 12:33N 54°33' E 011°20'1615.9
2017-Mar-21 11:33N 54°27' E 011°45'1515.4
2017-Mar-21 10:33N 54°28' E 012°12'3015.0
2017-Mar-21 08:32N 54°49' E 012°49'1616.1
2017-Mar-21 07:33N 54°53' E 013°15'1616.0
2017-Mar-21 06:33N 54°59' E 013°42'1616.0
2017-Mar-21 05:33N 55°06' E 014°06'1615.7
2017-Mar-21 04:33N 55°18' E 014°24'1616.1
2017-Mar-21 03:33N 55°30' E 014°44'1615.9
2017-Mar-21 02:33N 55°37' E 015°08'1615.9
2017-Mar-21 01:33N 55°45' E 015°33'1615.8
2017-Mar-21 00:34N 55°53' E 015°57'1615.8
2017-Mar-20 23:33N 56°01' E 016°21'1615.9
2017-Mar-20 22:33N 56°11' E 016°45'1615.9
2017-Mar-20 21:33N 56°25' E 016°55'  
Track history (hours):
 
Tides and Currents Weather Stations Pressure Air Temp Water Temp Dewpoint Dewpoint Depression Visibility Wind Speed Wind Dir Waves Ship Positions

Nordic Philip

Last reported at 2017-Mar-26 19:19 UTC. Time now 2017-Mar-29 16:57 UTC.
Position N 55°35' E 019°50'.

Length 151 m; draft 6.8 m.

Type: Ship (hazmat cat A). MMSI: 212018000.

Date/timePositionNaut miles runAvg speedWind from/ knotsBaromVisibWave heightAir tempDewpointWater temp
2017-Mar-26 19:19N 55°35' E 019°50'1416.7
2017-Mar-26 18:30N 55°22' E 019°46'1718.1
2017-Mar-26 17:33N 55°05' E 019°38'1818.2
2017-Mar-26 16:33N 54°47' E 019°36'1414.2
2017-Mar-26 15:33N 54°38' E 019°55'9 7.3
2017-Mar-26 14:15N 54°41' E 020°10'5 0.2
2017-Mar-25 15:10N 54°39' E 020°03'5 8.1
2017-Mar-25 14:29N 54°38' E 019°53'6 6.3
2017-Mar-25 13:33N 54°41' E 019°45'1211.6
2017-Mar-25 12:34N 54°46' E 019°27'1616.4
2017-Mar-25 11:33N 54°52' E 019°00'1716.7
2017-Mar-25 10:34N 54°55' E 018°32'1717.2
2017-Mar-25 09:34N 54°54' E 018°02'11718.4
2017-Mar-25 03:13N 54°37' E 014°42'1418.0
2017-Mar-25 02:26N 54°37' E 014°17'1718.5
2017-Mar-25 01:31N 54°41' E 013°49'1718.1
2017-Mar-25 00:33N 54°45' E 013°20'1818.2
2017-Mar-24 23:34N 54°44' E 012°48'1817.9
2017-Mar-24 22:32N 54°35' E 012°21'1616.5
2017-Mar-24 21:33N 54°24' E 012°01'1817.5
2017-Mar-24 20:33N 54°29' E 011°31'1817.8
2017-Mar-24 19:34N 54°35' E 011°03'1716.7
2017-Mar-24 18:33N 54°33' E 010°34'49 7.5
2017-Mar-24 12:03N 54°09' E 009°21'4 7.4
2017-Mar-24 11:32N 54°05' E 009°19'8 8.0
2017-Mar-24 10:33N 53°58' E 009°15'5 5.4
2017-Mar-24 09:33N 53°54' E 009°09'2 2.3
2017-Mar-24 08:33N 53°52' E 009°05'1414.2
2017-Mar-24 07:33N 53°54' E 008°41'1615.9
2017-Mar-24 06:33N 53°60' E 008°16'1312.7
2017-Mar-24 05:33N 53°54' E 007°56'9 9.2
2017-Mar-24 04:33N 53°48' E 008°08'1413.8
2017-Mar-24 03:33N 53°39' E 008°25'6 5.2
2017-Mar-24 02:28N 53°35' E 008°32'0 0.0
2017-Mar-24 01:28N 53°35' E 008°32'0 0.0
2017-Mar-24 00:28N 53°35' E 008°32'0 0.0
2017-Mar-23 23:28N 53°35' E 008°32'0 0.0
2017-Mar-23 22:28N 53°35' E 008°32'0 0.0
2017-Mar-23 21:28N 53°35' E 008°32'0 0.0
2017-Mar-23 20:33N 53°35' E 008°32'0 0.0
2017-Mar-23 19:33N 53°35' E 008°32'0 0.0
2017-Mar-23 18:33N 53°35' E 008°32'0 0.0
2017-Mar-23 17:33N 53°35' E 008°32'0 0.0
2017-Mar-23 16:33N 53°35' E 008°32'0 0.0
2017-Mar-23 15:33N 53°35' E 008°32'0 0.1
2017-Mar-23 14:33N 53°35' E 008°32'1111.0
2017-Mar-23 13:33N 53°43' E 008°18'1414.2
2017-Mar-23 12:33N 53°51' E 007°59'5 4.6
2017-Mar-23 11:33N 53°54' E 007°54'2 1.9
2017-Mar-23 10:31N 53°55' E 007°57'10 7.9
2017-Mar-23 09:18N 54°00' E 008°10'1115.2
2017-Mar-23 08:34N 53°59' E 008°29'1212.5
2017-Mar-23 07:34N 53°51' E 008°46'1212.4
2017-Mar-23 06:34N 53°53' E 009°07'1010.1
2017-Mar-23 05:33N 53°49' E 009°22'1212.4
2017-Mar-23 04:34N 53°38' E 009°32'1313.0
2017-Mar-23 03:33N 53°33' E 009°52'3 3.0
2017-Mar-23 02:29N 53°31' E 009°56'0 0.0
2017-Mar-23 01:32N 53°31' E 009°56'0 0.0
2017-Mar-23 00:32N 53°31' E 009°56'0 0.0
2017-Mar-22 23:32N 53°31' E 009°56'0 0.0
2017-Mar-22 22:32N 53°31' E 009°56'0 0.0
2017-Mar-22 21:32N 53°31' E 009°56'2 1.9
2017-Mar-22 20:33N 53°32' E 009°56'1 0.7
2017-Mar-22 19:31N 53°32' E 009°56'0 0.0
2017-Mar-22 18:31N 53°32' E 009°56'0 0.0
2017-Mar-22 17:31N 53°32' E 009°56'0 0.0
2017-Mar-22 16:31N 53°32' E 009°56'0 0.0
2017-Mar-22 15:31N 53°32' E 009°56'0 0.0
2017-Mar-22 14:31N 53°32' E 009°56'0 0.0
2017-Mar-22 13:31N 53°32' E 009°56'0 0.0
2017-Mar-22 12:31N 53°32' E 009°56'1 0.6
2017-Mar-22 11:33N 53°32' E 009°55'0 0.0
2017-Mar-22 10:33N 53°32' E 009°55'0 0.0
2017-Mar-22 09:33N 53°32' E 009°55'0 0.0
2017-Mar-22 08:30N 53°32' E 009°55'0 0.0
2017-Mar-22 07:33N 53°32' E 009°55'0 0.0
2017-Mar-22 06:33N 53°32' E 009°55'1 1.3
2017-Mar-22 05:34N 53°33' E 009°53'9 9.2
2017-Mar-22 04:33N 53°35' E 009°38'1212.0
2017-Mar-22 03:34N 53°44' E 009°26'1313.5
2017-Mar-22 02:34N 53°53' E 009°08'1 1.2
2017-Mar-22 01:33N 53°54' E 009°09'7 7.4
2017-Mar-22 00:33N 53°60' E 009°17'8 7.2
2017-Mar-21 23:29N 54°07' E 009°20'41 5.1
2017-Mar-21 15:33N 54°30' E 010°18'1111.3
2017-Mar-21 14:34N 54°34' E 010°36'1212.4
2017-Mar-21 13:33N 54°36' E 010°57'1413.8
2017-Mar-21 12:33N 54°33' E 011°20'1615.9
2017-Mar-21 11:33N 54°27' E 011°45'1515.4
2017-Mar-21 10:33N 54°28' E 012°12'3015.0
2017-Mar-21 08:32N 54°49' E 012°49'1616.1
2017-Mar-21 07:33N 54°53' E 013°15'1616.0
2017-Mar-21 06:33N 54°59' E 013°42'1616.0
2017-Mar-21 05:33N 55°06' E 014°06'1615.7
2017-Mar-21 04:33N 55°18' E 014°24'1616.1
2017-Mar-21 03:33N 55°30' E 014°44'1615.9
2017-Mar-21 02:33N 55°37' E 015°08'1615.9
2017-Mar-21 01:33N 55°45' E 015°33'1615.8
2017-Mar-21 00:34N 55°53' E 015°57'1615.8
2017-Mar-20 23:33N 56°01' E 016°21'1615.9
2017-Mar-20 22:33N 56°11' E 016°45'1615.9
2017-Mar-20 21:33N 56°25' E 016°55'  

Dump ship's entire track history